Time;durP1;ratioP1;P1;durP2;ratioP2;P2;SDS_P1;SDS_P2;PMS_P1;PMS_P2;Temp;Humidity;BMP_temperature;BMP_pressure;BME280_temperature;BME280_humidity;BME280_pressure;Samples;Min_cycle;Max_cycle;Signal;HPM_P1;HPM_P2
2023/07/05 00:02:06;;;;;;;11.70;5.80;;;;;;;19.84;69.55;100375.03;5020957;28;20041;-80
2023/07/05 00:04:31;;;;;;;9.48;5.90;;;;;;;19.93;69.92;100382.69;5017050;28;20045;-79
2023/07/05 00:06:57;;;;;;;10.20;6.22;;;;;;;20.01;69.60;100367.41;5019575;28;20038;-80
2023/07/05 00:09:25;;;;;;;9.45;6.07;;;;;;;19.59;70.90;100359.09;5017283;28;20376;-80
2023/07/05 00:12:00;;;;;;;10.45;6.28;;;;;;;19.55;71.97;100333.69;5014979;28;20057;-80
2023/07/05 00:14:27;;;;;;;10.73;6.20;;;;;;;19.18;73.76;100315.41;5017320;28;20048;-81
2023/07/05 00:16:58;;;;;;;9.50;6.15;;;;;;;19.30;73.54;100311.53;5017146;28;20065;-80
2023/07/05 00:19:24;;;;;;;9.48;5.93;;;;;;;19.15;74.65;100309.38;5015592;28;20084;-81
2023/07/05 00:21:55;;;;;;;9.65;5.88;;;;;;;19.21;74.45;100301.25;5017842;28;20037;-81
2023/07/05 00:24:20;;;;;;;9.20;5.78;;;;;;;19.01;75.71;100284.25;5015415;28;20061;-81
2023/07/05 00:26:55;;;;;;;12.77;5.85;;;;;;;18.95;76.13;100263.28;5018691;28;20034;-80
2023/07/05 00:29:20;;;;;;;12.50;6.00;;;;;;;19.17;75.81;100249.41;5024400;28;20034;-80
2023/07/05 00:31:46;;;;;;;10.07;5.60;;;;;;;19.37;75.48;100244.34;5031496;28;20167;-80
2023/07/05 00:34:11;;;;;;;9.45;5.97;;;;;;;19.04;77.04;100246.28;5033012;28;20049;-81
2023/07/05 00:36:42;;;;;;;9.93;5.82;;;;;;;19.50;75.12;100243.06;5026373;28;20042;-81
2023/07/05 00:39:11;;;;;;;11.70;5.80;;;;;;;19.30;76.60;100230.47;5020267;28;20422;-78
2023/07/05 00:41:36;;;;;;;11.02;5.47;;;;;;;19.12;77.26;100231.06;5018244;28;20045;-81
2023/07/05 00:44:01;;;;;;;9.40;5.80;;;;;;;19.47;76.27;100232.59;5017080;28;20038;-81
2023/07/05 00:46:30;;;;;;;10.95;5.60;;;;;;;19.49;76.35;100214.91;5017618;28;20066;-79
2023/07/05 00:49:18;;;;;;;11.30;6.22;;;;;;;19.31;76.98;100211.06;5017786;28;20558;-81
2023/07/05 00:52:18;;;;;;;9.40;5.82;;;;;;;19.41;76.92;100188.69;5024214;28;20057;-79
2023/07/05 00:54:51;;;;;;;8.80;5.65;;;;;;;19.98;74.85;100192.03;5017262;28;20251;-80
2023/07/05 00:57:34;;;;;;;10.15;5.32;;;;;;;19.72;75.47;100185.03;5021193;28;20153;-80
2023/07/05 01:00:05;;;;;;;10.82;5.88;;;;;;;19.77;75.95;100183.06;5019949;28;20034;-78
2023/07/05 01:02:31;;;;;;;7.10;5.13;;;;;;;19.38;77.56;100185.28;5018313;28;20459;-81
2023/07/05 01:04:57;;;;;;;10.15;5.35;;;;;;;19.45;77.95;100202.69;5015995;28;20478;-79
2023/07/05 01:07:26;;;;;;;12.65;5.28;;;;;;;19.92;76.07;100206.34;5018133;28;20564;-80
2023/07/05 01:09:55;;;;;;;11.75;4.95;;;;;;;19.81;76.57;100217.31;5016102;28;20037;-80
2023/07/05 01:12:34;;;;;;;7.15;3.90;;;;;;;19.71;76.92;100200.03;5016931;28;20046;-81
2023/07/05 01:15:23;;;;;;;5.55;2.60;;;;;;;19.81;75.01;100174.13;5012889;28;20034;-79
2023/07/05 01:18:31;;;;;;;3.03;1.90;;;;;;;20.06;74.16;100179.41;5022202;28;20034;-79
2023/07/05 01:21:21;;;;;;;2.85;1.80;;;;;;;19.91;73.63;100183.47;5018883;28;20034;-79
2023/07/05 01:24:34;;;;;;;3.13;1.70;;;;;;;19.91;73.13;100180.81;5016958;28;20084;-79
2023/07/05 01:27:23;;;;;;;6.22;1.80;;;;;;;19.78;73.57;100174.22;4985318;28;20045;-79
2023/07/05 01:29:51;;;;;;;4.78;1.60;;;;;;;20.02;72.57;100170.69;5018191;28;20391;-79
2023/07/05 01:32:29;;;;;;;3.35;1.60;;;;;;;19.75;71.86;100175.22;5017632;28;20052;-80
2023/07/05 01:35:05;;;;;;;4.78;1.77;;;;;;;19.58;71.60;100180.19;5016664;28;20120;-80
2023/07/05 01:37:37;;;;;;;4.72;1.50;;;;;;;19.85;70.39;100188.97;5016032;28;20042;-80
2023/07/05 01:40:21;;;;;;;5.78;1.77;;;;;;;19.85;68.96;100195.13;5016100;28;20407;-80
2023/07/05 01:42:51;;;;;;;6.05;1.80;;;;;;;19.68;69.08;100196.63;5015161;28;20042;-80
2023/07/05 01:45:21;;;;;;;7.38;1.50;;;;;;;19.88;67.70;100202.09;5016975;28;20045;-79
2023/07/05 01:47:57;;;;;;;8.00;1.60;;;;;;;19.82;67.30;100197.03;5017456;28;20068;-79
2023/07/05 01:50:55;;;;;;;6.88;1.55;;;;;;;19.66;67.72;100209.91;5016103;28;20029;-79
2023/07/05 01:53:47;;;;;;;5.55;1.50;;;;;;;19.57;66.94;100181.16;5008274;28;20049;-80
2023/07/05 01:56:25;;;;;;;7.28;1.70;;;;;;;19.50;68.09;100191.97;5016969;28;20049;-79
2023/07/05 01:58:58;;;;;;;5.72;1.80;;;;;;;19.42;68.53;100198.34;5017392;28;20040;-79
2023/07/05 02:01:25;;;;;;;5.90;1.90;;;;;;;19.71;66.97;100204.44;5018081;28;20054;-79
2023/07/05 02:03:52;;;;;;;7.63;1.73;;;;;;;19.56;67.14;100197.06;5017533;28;20037;-79
2023/07/05 02:06:25;;;;;;;7.30;1.75;;;;;;;19.54;67.46;100194.44;5020053;28;20057;-79
2023/07/05 02:08:50;;;;;;;8.05;2.17;;;;;;;19.31;68.38;100191.69;5019451;28;20038;-79
2023/07/05 02:11:16;;;;;;;5.60;2.20;;;;;;;19.29;67.72;100191.72;5015536;28;20092;-79
2023/07/05 02:13:51;;;;;;;7.30;2.17;;;;;;;19.58;67.26;100190.78;5015495;28;20041;-80
2023/07/05 02:16:28;;;;;;;8.10;2.22;;;;;;;19.15;68.65;100185.19;5016522;28;20060;-79
2023/07/05 02:18:53;;;;;;;4.95;2.00;;;;;;;19.40;67.58;100188.72;5017093;28;20037;-79
2023/07/05 02:21:22;;;;;;;7.97;2.50;;;;;;;19.15;69.26;100188.66;5019377;28;20073;-80
2023/07/05 02:23:47;;;;;;;7.20;2.30;;;;;;;18.88;70.24;100192.22;5016666;28;20038;-80
2023/07/05 02:26:16;;;;;;;4.28;2.20;;;;;;;19.25;69.07;100182.19;5016827;28;20117;-80
2023/07/05 02:28:41;;;;;;;6.70;2.80;;;;;;;19.02;70.40;100190.00;5013505;28;20121;-79
2023/07/05 02:31:11;;;;;;;6.82;2.90;;;;;;;19.15;70.15;100193.13;5015626;28;20042;-79
2023/07/05 02:33:39;;;;;;;5.13;3.10;;;;;;;18.95;70.76;100189.34;5015463;28;20069;-79
2023/07/05 02:36:17;;;;;;;6.25;3.30;;;;;;;18.59;71.49;100190.47;5015552;28;20030;-81
2023/07/05 02:38:51;;;;;;;8.38;3.72;;;;;;;18.45;71.46;100182.06;5015907;28;20045;-80
2023/07/05 02:41:17;;;;;;;4.85;3.22;;;;;;;18.48;71.02;100185.44;5014942;28;20050;-80
2023/07/05 02:43:42;;;;;;;7.03;3.30;;;;;;;18.15;71.96;100199.66;5015846;28;20054;-79
2023/07/05 02:46:17;;;;;;;6.53;3.40;;;;;;;18.02;73.29;100187.69;5021155;28;20037;-79
2023/07/05 02:48:42;;;;;;;5.55;3.08;;;;;;;17.87;73.33;100182.88;5023471;28;20056;-79
2023/07/05 02:51:07;;;;;;;11.68;2.90;;;;;;;17.79;72.45;100178.66;5015084;28;20116;-79
2023/07/05 02:53:33;;;;;;;5.13;2.80;;;;;;;18.19;70.56;100178.41;5013479;28;20103;-79
2023/07/05 02:56:01;;;;;;;6.55;2.80;;;;;;;18.12;71.10;100173.34;5016027;28;20050;-79
2023/07/05 02:58:26;;;;;;;6.10;2.55;;;;;;;18.01;71.47;100180.69;5013741;28;20034;-79
2023/07/05 03:00:54;;;;;;;5.38;2.90;;;;;;;17.86;72.29;100171.44;5016124;28;20062;-79
2023/07/05 03:03:23;;;;;;;4.43;2.67;;;;;;;18.28;70.59;100184.34;5015274;28;20049;-79
2023/07/05 03:06:01;;;;;;;4.45;2.60;;;;;;;18.16;71.25;100175.88;5014128;28;20036;-80
2023/07/05 03:08:28;;;;;;;5.30;3.00;;;;;;;18.06;71.95;100168.22;5014066;28;20049;-80
2023/07/05 03:10:58;;;;;;;6.18;3.20;;;;;;;18.14;72.08;100175.03;5014756;28;20037;-79
2023/07/05 03:13:29;;;;;;;5.00;2.78;;;;;;;17.86;73.71;100165.31;5015644;28;20065;-78
2023/07/05 03:15:55;;;;;;;7.38;3.33;;;;;;;17.83;73.79;100164.47;5015321;28;20053;-79
2023/07/05 03:18:24;;;;;;;5.35;2.83;;;;;;;17.88;73.81;100163.47;5013609;28;20487;-79
2023/07/05 03:20:50;;;;;;;6.07;3.10;;;;;;;17.77;74.22;100159.38;5013757;28;20034;-79
2023/07/05 03:23:18;;;;;;;4.47;2.83;;;;;;;17.76;74.85;100164.69;5015908;28;20061;-79
2023/07/05 03:26:02;;;;;;;4.63;2.90;;;;;;;17.83;74.22;100158.34;5016955;28;20050;-79
2023/07/05 03:28:30;;;;;;;5.85;3.15;;;;;;;17.70;74.81;100154.31;5015340;28;20104;-79
2023/07/05 03:31:04;;;;;;;5.50;2.90;;;;;;;17.72;74.69;100153.38;5016305;28;20041;-79
2023/07/05 03:33:31;;;;;;;5.18;2.95;;;;;;;17.71;74.82;100154.25;5017043;28;20060;-79
2023/07/05 03:36:07;;;;;;;6.35;2.85;;;;;;;17.53;75.24;100140.69;5018046;28;20479;-79
2023/07/05 03:38:33;;;;;;;4.60;2.47;;;;;;;17.45;74.95;100128.56;5016349;28;20034;-78
2023/07/05 03:41:04;;;;;;;6.05;2.70;;;;;;;17.56;74.92;100125.66;5019915;28;20507;-78
2023/07/05 03:43:33;;;;;;;4.95;2.65;;;;;;;17.70;74.26;100128.81;4981026;28;1118857;-78
2023/07/05 03:46:13;;;;;;;6.13;2.55;;;;;;;17.48;74.36;100118.88;5019972;28;20068;-78
2023/07/05 03:48:45;;;;;;;6.80;2.40;;;;;;;17.68;73.81;100121.88;5020966;28;20041;-77
2023/07/05 03:51:18;;;;;;;7.70;2.25;;;;;;;17.66;73.75;100116.63;5022772;28;20025;-79
2023/07/05 03:53:47;;;;;;;4.30;2.22;;;;;;;17.64;74.31;100109.66;5022617;28;20465;-79
2023/07/05 03:56:12;;;;;;;5.35;2.53;;;;;;;17.44;74.63;100133.91;5022236;28;20034;-78
2023/07/05 03:58:38;;;;;;;4.43;2.20;;;;;;;17.57;74.71;100137.91;5017556;28;20125;-78
2023/07/05 04:01:28;;;;;;;6.53;2.20;;;;;;;17.37;75.14;100143.75;5020866;28;20038;-79
2023/07/05 04:03:56;;;;;;;5.82;2.40;;;;;;;17.73;74.75;100168.28;5017311;28;20041;-78
2023/07/05 04:06:23;;;;;;;5.90;2.25;;;;;;;17.53;75.16;100160.00;5020684;28;20056;-80
2023/07/05 04:08:51;;;;;;;4.30;2.05;;;;;;;17.79;74.24;100165.47;5022926;28;20094;-80
2023/07/05 04:11:17;;;;;;;6.85;1.85;;;;;;;17.95;73.79;100162.41;5029851;28;20076;-79
2023/07/05 04:13:44;;;;;;;4.63;1.90;;;;;;;17.98;73.69;100150.00;5028804;28;20061;-80
2023/07/05 04:16:18;;;;;;;4.65;1.60;;;;;;;17.54;74.59;100151.19;5015177;28;20056;-79
2023/07/05 04:18:52;;;;;;;4.95;1.60;;;;;;;17.61;74.49;100173.00;5021229;28;20097;-78
2023/07/05 04:21:17;;;;;;;7.43;1.60;;;;;;;17.63;73.94;100153.59;5030065;28;20076;-78
2023/07/05 04:23:43;;;;;;;8.63;1.40;;;;;;;17.58;73.58;100158.09;5030372;28;20045;-78
2023/07/05 04:26:11;;;;;;;4.05;1.30;;;;;;;17.69;73.26;100165.75;5028778;28;20065;-78
2023/07/05 04:28:40;;;;;;;4.55;1.30;;;;;;;17.85;72.85;100164.44;5019055;28;20056;-78
2023/07/05 04:31:17;;;;;;;8.15;1.38;;;;;;;17.49;73.04;100157.50;5030310;28;20029;-78
2023/07/05 04:33:45;;;;;;;6.03;1.50;;;;;;;17.66;72.71;100164.06;5045440;28;20038;-77
2023/07/05 04:36:14;;;;;;;8.00;1.83;;;;;;;17.50;73.62;100156.59;5026971;28;20045;-79
2023/07/05 04:38:42;;;;;;;8.32;1.70;;;;;;;17.58;73.42;100166.00;5026152;28;20557;-79
2023/07/05 04:41:08;;;;;;;9.60;2.10;;;;;;;17.74;72.91;100172.66;5017879;28;20038;-79
2023/07/05 04:43:43;;;;;;;9.20;1.75;;;;;;;17.48;73.75;100167.16;5014751;28;20446;-79
2023/07/05 04:46:08;;;;;;;5.90;1.75;;;;;;;17.19;74.40;100165.28;5016281;28;20030;-78
2023/07/05 04:48:39;;;;;;;4.93;1.60;;;;;;;17.65;72.85;100179.91;5014685;28;20057;-79
2023/07/05 04:51:14;;;;;;;6.25;1.73;;;;;;;17.52;72.32;100181.13;5018040;28;20045;-79
2023/07/05 04:53:39;;;;;;;6.25;1.70;;;;;;;17.38;72.47;100179.69;5017359;28;20041;-79
2023/07/05 04:56:12;;;;;;;6.05;2.00;;;;;;;17.07;72.19;100189.28;5029211;28;20026;-79
2023/07/05 04:58:38;;;;;;;9.40;2.15;;;;;;;17.08;72.75;100190.16;5033670;28;20072;-80
2023/07/05 05:01:04;;;;;;;8.25;2.03;;;;;;;17.09;71.35;100191.84;5034394;28;20038;-78
2023/07/05 05:03:30;;;;;;;4.38;1.80;;;;;;;17.32;71.01;100177.22;5033315;28;20045;-78
2023/07/05 05:05:55;;;;;;;11.45;2.10;;;;;;;17.62;69.68;100167.72;5034099;28;20053;-78
2023/07/05 05:08:24;;;;;;;11.35;2.20;;;;;;;17.13;70.04;100173.34;5027879;28;20053;-79
2023/07/05 05:10:56;;;;;;;7.95;2.40;;;;;;;17.32;69.88;100173.75;5023918;28;20037;-79
2023/07/05 05:13:22;;;;;;;7.70;2.30;;;;;;;17.04;69.74;100173.53;5026944;28;20041;-80
2023/07/05 05:15:54;;;;;;;9.15;1.90;;;;;;;16.92;70.91;100193.13;5026839;28;20117;-80
2023/07/05 05:18:29;;;;;;;8.82;2.00;;;;;;;16.52;71.13;100192.28;5024652;28;20034;-79
2023/07/05 05:20:55;;;;;;;9.23;2.20;;;;;;;16.52;71.10;100216.81;5021344;28;20041;-79
2023/07/05 05:23:20;;;;;;;11.50;2.03;;;;;;;16.45;71.25;100211.72;5019546;28;20033;-79
2023/07/05 05:25:47;;;;;;;10.35;1.92;;;;;;;16.26;72.14;100210.34;5023242;28;20030;-82
2023/07/05 05:28:16;;;;;;;13.45;2.03;;;;;;;16.55;71.53;100210.59;5032816;28;20081;-81
2023/07/05 05:30:45;;;;;;;10.52;2.00;;;;;;;15.67;73.97;100205.38;5032065;28;20040;-80
2023/07/05 05:33:16;;;;;;;14.60;2.10;;;;;;;15.59;74.49;100214.25;5031943;28;20126;-80
2023/07/05 05:35:54;;;;;;;11.13;2.20;;;;;;;15.78;74.14;100207.78;5030390;28;20041;-80
2023/07/05 05:38:20;;;;;;;9.88;1.75;;;;;;;15.94;73.51;100217.09;5015106;28;20044;-78
2023/07/05 05:40:48;;;;;;;14.95;4.15;;;;;;;15.82;73.38;100225.22;5012666;28;20038;-78
2023/07/05 05:43:19;;;;;;;10.98;1.92;;;;;;;15.77;73.69;100230.56;5015221;28;20033;-81
2023/07/05 05:45:48;;;;;;;11.38;2.20;;;;;;;15.58;73.50;100228.28;5012820;28;20049;-79
2023/07/05 05:48:16;;;;;;;10.27;1.88;;;;;;;15.51;73.02;100216.97;5012334;28;20041;-79
2023/07/05 05:50:46;;;;;;;7.88;1.50;;;;;;;15.39;73.30;100212.81;5014153;28;20125;-79
2023/07/05 05:53:12;;;;;;;4.40;1.20;;;;;;;15.61;72.22;100194.09;5013950;28;20033;-80
2023/07/05 05:55:39;;;;;;;7.90;1.40;;;;;;;15.85;71.20;100196.25;5013421;28;20030;-79
2023/07/05 05:58:05;;;;;;;7.78;1.13;;;;;;;15.17;72.80;100198.31;5013595;28;20451;-79
2023/07/05 06:00:31;;;;;;;5.22;1.20;;;;;;;14.90;73.66;100193.47;5013542;28;20498;-79
2023/07/05 06:02:57;;;;;;;8.85;1.20;;;;;;;15.14;72.96;100187.84;5014421;28;20092;-79
2023/07/05 06:05:23;;;;;;;6.38;1.10;;;;;;;15.10;74.12;100193.16;5015114;28;20037;-80
2023/07/05 06:07:48;;;;;;;9.55;1.42;;;;;;;15.17;74.26;100172.03;5011163;28;20038;-80
2023/07/05 06:10:17;;;;;;;12.77;1.70;;;;;;;14.97;76.18;100182.84;5012126;28;20514;-79
2023/07/05 06:12:45;;;;;;;8.63;1.70;;;;;;;15.45;75.34;100172.44;5011434;28;20045;-79
2023/07/05 06:15:12;;;;;;;16.33;2.25;;;;;;;15.46;76.46;100194.31;5020086;28;20030;-78
2023/07/05 06:17:38;;;;;;;9.95;2.63;;;;;;;15.61;76.21;100191.47;5026857;28;20118;-79
2023/07/05 06:20:08;;;;;;;8.55;2.50;;;;;;;15.70;76.50;100188.66;5025248;28;20040;-81
2023/07/05 06:22:34;;;;;;;13.90;2.88;;;;;;;15.33;79.12;100183.16;5017671;28;20053;-80
2023/07/05 06:25:00;;;;;;;14.18;3.00;;;;;;;15.28;79.28;100204.25;5018995;28;20172;-79
2023/07/05 06:27:29;;;;;;;13.07;2.92;;;;;;;15.66;77.76;100203.63;5017824;28;20042;-79
2023/07/05 06:29:55;;;;;;;21.65;3.65;;;;;;;15.36;79.00;100215.50;5016362;28;20038;-80
2023/07/05 06:32:21;;;;;;;15.88;2.85;;;;;;;15.45;78.81;100230.22;5016650;28;20045;-78
2023/07/05 06:34:46;;;;;;;20.15;2.95;;;;;;;15.60;79.38;100237.03;5013323;28;20049;-79
2023/07/05 06:37:24;;;;;;;14.45;3.10;;;;;;;15.55;79.07;100223.09;5014342;28;20033;-79
2023/07/05 06:39:49;;;;;;;13.63;3.15;;;;;;;15.15;80.38;100214.97;5014557;28;20117;-78
2023/07/05 06:42:15;;;;;;;12.43;2.97;;;;;;;15.51;79.20;100232.75;5029724;28;20090;-78
2023/07/05 06:44:46;;;;;;;22.27;2.95;;;;;;;15.56;79.41;100246.69;5029005;28;20029;-79
2023/07/05 06:47:12;;;;;;;11.38;2.83;;;;;;;15.57;78.05;100264.19;5018430;28;20038;-78
2023/07/05 06:49:37;;;;;;;15.63;2.83;;;;;;;15.46;78.22;100276.63;5013727;28;20505;-79
2023/07/05 06:52:05;;;;;;;17.05;3.05;;;;;;;14.97;79.82;100258.97;5012963;28;20045;-79
2023/07/05 06:54:34;;;;;;;15.77;3.25;;;;;;;15.29;78.89;100258.50;5011837;28;20042;-78
2023/07/05 06:57:00;;;;;;;18.25;3.00;;;;;;;15.36;78.20;100298.69;5012825;28;20105;-76
2023/07/05 06:59:26;;;;;;;14.30;2.80;;;;;;;15.29;78.75;100287.38;5012786;28;20130;-81
2023/07/05 07:01:51;;;;;;;14.02;2.75;;;;;;;15.20;78.80;100256.00;5014413;28;20060;-79
2023/07/05 07:04:16;;;;;;;14.20;2.95;;;;;;;14.70;80.28;100298.69;5033637;28;20057;-83
2023/07/05 07:06:48;;;;;;;13.00;3.00;;;;;;;15.41;78.79;100302.09;5033233;28;20025;-85
2023/07/05 07:09:13;;;;;;;11.50;2.97;;;;;;;15.18;79.30;100312.06;5034630;28;20021;-82
2023/07/05 07:11:39;;;;;;;15.00;3.60;;;;;;;14.78;80.30;100349.34;5034308;28;20026;-81
2023/07/05 07:14:05;;;;;;;11.27;2.78;;;;;;;15.12;79.20;100351.53;5029156;28;20037;-78
2023/07/05 07:16:36;;;;;;;11.98;2.42;;;;;;;15.08;78.33;100332.31;5034501;28;20050;-80
2023/07/05 07:19:02;;;;;;;13.23;2.90;;;;;;;15.51;78.27;100360.59;5023169;28;20052;-81
2023/07/05 07:21:27;;;;;;;14.68;2.90;;;;;;;15.44;78.45;100381.72;5035460;28;20057;-81
2023/07/05 07:23:52;;;;;;;11.30;2.85;;;;;;;15.53;78.80;100366.75;5036864;28;20034;-85
2023/07/05 07:26:24;;;;;;;11.95;2.90;;;;;;;15.41;78.35;100366.00;5036032;28;20060;-80
2023/07/05 07:28:57;;;;;;;11.73;2.60;;;;;;;15.16;79.21;100387.38;5017004;28;20096;-80
2023/07/05 07:31:28;;;;;;;9.38;3.10;;;;;;;15.48;78.73;100389.56;5015878;28;20041;-81
2023/07/05 07:33:57;;;;;;;10.88;2.83;;;;;;;15.47;78.48;100370.31;5014169;28;20088;-81
2023/07/05 07:36:25;;;;;;;9.82;3.00;;;;;;;15.27;78.71;100432.72;5014386;28;20044;-81
2023/07/05 07:38:52;;;;;;;11.05;2.97;;;;;;;15.25;77.49;100456.38;5016960;28;20037;-81
2023/07/05 07:41:31;;;;;;;9.20;2.58;;;;;;;14.98;76.11;100449.72;5016054;28;20064;-79
2023/07/05 07:44:16;;;;;;;17.70;2.70;;;;;;;15.56;77.10;100482.28;5017613;28;20045;-80
2023/07/05 07:46:42;;;;;;;11.20;2.80;;;;;;;15.60;76.87;100470.88;5015509;28;20036;-81
2023/07/05 07:49:10;;;;;;;10.45;2.60;;;;;;;15.57;75.38;100449.88;5015590;28;20038;-79
2023/07/05 07:51:37;;;;;;;9.40;2.60;;;;;;;15.53;76.20;100477.97;5017308;28;20096;-78
2023/07/05 07:54:30;;;;;;;10.07;2.60;;;;;;;15.86;75.77;100483.66;5015619;28;20046;-79
2023/07/05 07:56:57;;;;;;;8.25;2.40;;;;;;;15.32;77.55;100486.06;5015354;28;20030;-78
2023/07/05 07:59:25;;;;;;;10.45;2.90;;;;;;;15.49;76.49;100493.75;5016875;28;20034;-79
2023/07/05 08:01:53;;;;;;;8.95;2.95;;;;;;;15.57;77.96;100491.91;5014101;28;20058;-83
2023/07/05 08:04:22;;;;;;;11.02;3.50;;;;;;;15.53;78.55;100514.75;5015457;28;20376;-80
2023/07/05 08:06:51;;;;;;;17.17;3.78;;;;;;;15.51;80.28;100524.34;5014395;28;20549;-79
2023/07/05 08:09:21;;;;;;;20.45;3.92;;;;;;;15.85;79.22;100516.97;5016110;28;20034;-79
2023/07/05 08:11:49;;;;;;;19.88;4.32;;;;;;;15.21;81.86;100574.63;5014859;28;20049;-78
2023/07/05 08:14:18;;;;;;;19.88;4.82;;;;;;;15.51;82.10;100544.50;5017276;28;20050;-79
2023/07/05 08:16:44;;;;;;;17.98;4.30;;;;;;;15.37;83.08;100599.81;5018182;28;20037;-82
2023/07/05 08:19:10;;;;;;;11.50;3.40;;;;;;;14.93;82.55;100558.28;5020742;28;20101;-79
2023/07/05 08:21:43;;;;;;;10.25;3.38;;;;;;;14.88;82.09;100574.03;5019888;28;20480;-81
2023/07/05 08:24:10;;;;;;;11.57;2.97;;;;;;;15.23;80.26;100564.97;5019056;28;20077;-78
2023/07/05 08:26:42;;;;;;;13.48;3.28;;;;;;;15.13;79.35;100572.06;5016918;28;20079;-80
2023/07/05 08:29:10;;;;;;;12.15;3.10;;;;;;;15.14;80.04;100584.31;5017964;28;20235;-80
2023/07/05 08:31:39;;;;;;;11.88;3.08;;;;;;;15.37;79.59;100594.56;5016463;28;20541;-78
2023/07/05 08:34:04;;;;;;;11.88;3.03;;;;;;;15.40;79.29;100619.06;5017748;28;20038;-79
2023/07/05 08:36:37;;;;;;;15.57;3.30;;;;;;;14.97;80.74;100641.34;5016049;28;20144;-79
2023/07/05 08:39:05;;;;;;;14.45;3.15;;;;;;;15.29;79.84;100620.94;5016793;28;20040;-79
2023/07/05 08:41:58;;;;;;;15.90;2.97;;;;;;;15.35;79.85;100627.88;5018779;28;20034;-78
2023/07/05 08:45:01;;;;;;;13.60;3.30;;;;;;;14.97;80.18;100626.47;5024826;28;20049;-80
2023/07/05 08:47:45;;;;;;;8.73;2.50;;;;;;;15.17;79.17;100651.69;5026955;28;20033;-82
2023/07/05 08:50:21;;;;;;;15.55;3.10;;;;;;;15.19;78.77;100656.03;5023560;28;20050;-79
2023/07/05 08:52:48;;;;;;;12.30;3.25;;;;;;;15.31;79.77;100650.66;5017279;28;20041;-81
2023/07/05 08:55:32;;;;;;;16.33;3.17;;;;;;;16.01;78.57;100657.81;5020186;28;20053;-82
2023/07/05 08:58:01;;;;;;;14.90;3.90;;;;;;;16.51;79.38;100658.91;5014129;28;20058;-80
2023/07/05 09:00:49;;;;;;;14.20;3.80;;;;;;;16.70;78.89;100675.34;5015756;28;20514;-81
2023/07/05 09:03:15;;;;;;;17.70;3.70;;;;;;;16.65;79.19;100672.75;5036665;28;20041;-80
2023/07/05 09:05:56;;;;;;;16.05;3.38;;;;;;;17.49;77.18;100688.09;5041975;28;20065;-79
2023/07/05 09:08:37;;;;;;;11.48;3.40;;;;;;;17.51;76.26;100690.69;5039468;28;20033;-80
2023/07/05 09:11:17;;;;;;;9.85;2.88;;;;;;;17.31;75.26;100702.47;5036167;28;20120;-80
2023/07/05 09:13:42;;;;;;;13.27;3.20;;;;;;;17.78;74.50;100720.09;5039406;28;20041;-79
2023/07/05 09:16:49;;;;;;;10.60;3.15;;;;;;;17.54;75.07;100727.53;5042380;28;20093;-81
2023/07/05 09:19:20;;;;;;;9.75;3.05;;;;;;;17.78;74.10;100735.91;5039166;28;20041;-79
2023/07/05 09:21:58;;;;;;;9.32;2.70;;;;;;;17.38;75.20;100748.03;5028748;28;20041;-78
2023/07/05 09:24:41;;;;;;;10.95;3.25;;;;;;;17.76;74.58;100748.25;5033692;28;20045;-79
2023/07/05 09:27:42;;;;;;;12.07;3.30;;;;;;;17.57;73.85;100753.84;5034601;28;20029;-79
2023/07/05 09:30:24;;;;;;;14.10;3.38;;;;;;;17.67;74.12;100758.97;4991018;28;20504;-80
2023/07/05 09:33:00;;;;;;;14.93;3.35;;;;;;;18.36;71.69;100755.03;5032037;28;20042;-81
2023/07/05 09:35:30;;;;;;;14.07;3.20;;;;;;;18.49;72.16;100773.22;5033086;28;20402;-80
2023/07/05 09:43:35;;;;;;;10.27;3.05;;;;;;;18.79;71.25;100784.06;5018196;23;20463;-46
2023/07/05 09:46:04;;;;;;;12.45;3.22;;;;;;;19.21;69.03;100782.25;5011539;28;20117;-44
2023/07/05 09:48:34;;;;;;;9.57;3.35;;;;;;;19.16;70.20;100799.97;5009645;28;20121;-44
2023/07/05 09:51:03;;;;;;;12.00;3.30;;;;;;;18.78;70.71;100798.19;5010908;28;20080;-48
2023/07/05 09:53:45;;;;;;;11.77;3.22;;;;;;;18.60;69.31;100812.66;5010559;28;20045;-44
2023/07/05 09:56:27;;;;;;;12.48;3.10;;;;;;;19.00;67.73;100812.66;5011378;28;20058;-45
2023/07/05 09:59:05;;;;;;;13.25;3.35;;;;;;;19.32;68.45;100814.59;5010025;28;20034;-45
2023/07/05 10:01:31;;;;;;;12.90;3.13;;;;;;;18.88;68.82;100827.00;5010102;28;20680;-44
2023/07/05 10:04:03;;;;;;;11.40;3.35;;;;;;;19.02;68.12;100829.38;5011215;28;20030;-44
2023/07/05 10:06:28;;;;;;;12.95;3.20;;;;;;;18.72;70.22;100822.97;5011154;28;20038;-43
2023/07/05 10:08:57;;;;;;;12.80;3.40;;;;;;;18.34;72.65;100838.66;5010379;28;20373;-44
2023/07/05 10:11:35;;;;;;;12.68;3.55;;;;;;;18.44;73.21;100838.44;5010776;28;20057;-48
2023/07/05 10:14:29;;;;;;;9.18;2.83;;;;;;;18.64;71.77;100849.53;5011284;28;20088;-46
2023/07/05 10:17:06;;;;;;;10.10;3.15;;;;;;;18.72;72.36;100870.50;5011343;28;20571;-48
2023/07/05 10:19:38;;;;;;;11.57;3.28;;;;;;;18.40;72.73;100865.81;5010983;28;20045;-45
2023/07/05 10:22:12;;;;;;;12.93;3.22;;;;;;;18.27;70.83;100885.41;5013985;28;20117;-43
2023/07/05 10:24:49;;;;;;;13.43;3.38;;;;;;;18.81;70.44;100880.00;5011370;28;20128;-46
2023/07/05 10:27:35;;;;;;;9.70;2.97;;;;;;;18.79;71.00;100877.38;5011704;28;20038;-42
2023/07/05 10:30:13;;;;;;;13.52;3.10;;;;;;;18.84;70.21;100898.44;5012065;28;20060;-42
2023/07/05 10:32:42;;;;;;;10.05;2.88;;;;;;;18.14;69.81;100904.97;5011904;28;20125;-43
2023/07/05 10:35:27;;;;;;;8.07;2.72;;;;;;;19.26;68.48;100899.31;5013534;28;20026;-44
2023/07/05 10:37:53;;;;;;;12.70;3.10;;;;;;;19.39;67.27;100909.56;5013519;28;20120;-44
2023/07/05 10:40:21;;;;;;;9.00;2.75;;;;;;;19.41;66.11;100906.88;5014512;28;20045;-44
2023/07/05 10:42:51;;;;;;;9.43;2.88;;;;;;;19.82;64.97;100900.69;5014823;28;20046;-46
2023/07/05 10:45:19;;;;;;;11.02;3.00;;;;;;;20.28;65.81;100916.28;5014876;28;20467;-45
2023/07/05 10:47:52;;;;;;;16.73;2.95;;;;;;;20.23;62.56;100919.06;5013210;28;20132;-43
2023/07/05 10:50:25;;;;;;;11.07;2.90;;;;;;;20.24;62.96;100930.50;5015740;28;20034;-45
2023/07/05 10:52:58;;;;;;;9.98;2.90;;;;;;;20.10;62.23;100928.22;5015458;28;20034;-42
2023/07/05 10:55:35;;;;;;;9.73;2.67;;;;;;;19.78;62.18;100951.91;5016036;28;20029;-51
2023/07/05 10:58:15;;;;;;;12.63;3.10;;;;;;;19.59;61.79;100953.22;5017180;28;20038;-44
2023/07/05 11:00:48;;;;;;;16.48;3.30;;;;;;;19.82;62.63;100966.84;5014390;28;20046;-43
2023/07/05 11:03:23;;;;;;;11.32;2.67;;;;;;;20.16;62.99;100969.53;5014609;28;20029;-42
2023/07/05 11:05:51;;;;;;;7.55;2.70;;;;;;;20.94;59.97;100960.44;5012049;28;20049;-47
2023/07/05 11:08:39;;;;;;;11.43;2.45;;;;;;;20.74;59.34;100957.50;5010909;28;20042;-42
2023/07/05 11:11:15;;;;;;;13.77;2.78;;;;;;;20.47;58.75;100978.50;5010373;28;20033;-43
2023/07/05 11:13:42;;;;;;;10.43;2.83;;;;;;;20.77;59.42;100973.28;5009909;28;20092;-43
2023/07/05 11:16:09;;;;;;;9.52;2.72;;;;;;;20.16;59.46;100972.19;5010328;28;20038;-49
2023/07/05 11:18:35;;;;;;;10.60;2.78;;;;;;;20.58;58.44;100973.78;5009519;28;20574;-42
2023/07/05 11:21:02;;;;;;;9.57;2.50;;;;;;;20.60;57.37;100989.63;5010253;28;20120;-44
2023/07/05 11:23:43;;;;;;;10.38;2.90;;;;;;;20.54;58.94;100992.44;5009647;28;20044;-48
2023/07/05 11:26:10;;;;;;;12.95;2.83;;;;;;;20.13;59.55;101022.53;5011655;28;20044;-46
2023/07/05 11:28:38;;;;;;;13.00;2.70;;;;;;;19.97;59.12;101010.56;5013294;28;20512;-45
2023/07/05 11:31:05;;;;;;;8.02;2.45;;;;;;;19.95;60.01;101025.59;5011264;28;20034;-45
2023/07/05 11:33:30;;;;;;;13.50;2.80;;;;;;;19.81;59.27;101013.59;5009817;28;20777;-48
2023/07/05 11:35:58;;;;;;;11.43;3.00;;;;;;;20.06;58.50;101023.59;5009978;28;20032;-43
2023/07/05 11:38:36;;;;;;;13.13;2.78;;;;;;;20.57;57.14;101026.78;5009759;28;20559;-43
2023/07/05 11:41:05;;;;;;;12.60;3.22;;;;;;;20.61;56.94;101039.06;5009437;28;20107;-47
2023/07/05 11:43:42;;;;;;;8.90;2.35;;;;;;;20.61;57.41;101034.59;5009164;28;20065;-45
2023/07/05 11:46:37;;;;;;;10.90;2.85;;;;;;;20.55;56.36;101039.22;5009697;28;20030;-46
2023/07/05 11:49:20;;;;;;;13.90;2.67;;;;;;;20.71;57.32;101047.63;5008874;28;20033;-42